Time;durP1;ratioP1;P1;durP2;ratioP2;P2;SDS_P1;SDS_P2;PMS_P1;PMS_P2;Temp;Humidity;BMP_temperature;BMP_pressure;BME280_temperature;BME280_humidity;BME280_pressure;Samples;Min_cycle;Max_cycle;Signal;HPM_P1;HPM_P2
2021/09/12 00:02:21;;;;;;;23.53;20.80;;;;;;;;;;4962321;28;20191;-77
2021/09/12 00:04:46;;;;;;;23.13;19.83;;;;;;;;;;4963338;28;20179;-77
2021/09/12 00:07:12;;;;;;;26.97;21.00;;;;;;;;;;4965018;28;20214;-77
2021/09/12 00:09:37;;;;;;;23.13;20.73;;;;;;;;;;4963586;28;20270;-77
2021/09/12 00:12:03;;;;;;;25.33;21.40;;;;;;;;;;4959914;28;20897;-77
2021/09/12 00:14:28;;;;;;;24.10;20.97;;;;;;;;;;4961280;28;20730;-77
2021/09/12 00:16:53;;;;;;;25.60;21.97;;;;;;;;;;4958833;28;20178;-77
2021/09/12 00:19:19;;;;;;;26.87;22.30;;;;;;;;;;4962092;28;20194;-77
2021/09/12 00:21:44;;;;;;;26.93;21.83;;;;;;;;;;4960401;28;20664;-77
2021/09/12 00:24:10;;;;;;;26.40;22.17;;;;;;;;;;4962663;28;20182;-77
2021/09/12 00:26:35;;;;;;;26.57;22.03;;;;;;;;;;4961798;28;20717;-77
2021/09/12 00:29:00;;;;;;;28.43;22.67;;;;;;;;;;4961202;28;20211;-76
2021/09/12 00:31:26;;;;;;;23.97;21.40;;;;;;;;;;4960957;28;20191;-76
2021/09/12 00:33:51;;;;;;;26.53;20.30;;;;;;;;;;4962176;28;20264;-77
2021/09/12 00:36:16;;;;;;;24.03;20.97;;;;;;;;;;4962574;28;20174;-77
2021/09/12 00:38:41;;;;;;;23.77;19.40;;;;;;;;;;4963330;28;20290;-77
2021/09/12 00:41:07;;;;;;;23.80;20.83;;;;;;;;;;4961999;28;20179;-78
2021/09/12 00:43:35;;;;;;;24.63;20.67;;;;;;;;;;4962587;28;20187;-78
2021/09/12 00:46:06;;;;;;;27.20;20.93;;;;;;;;;;4961551;28;20176;-78
2021/09/12 00:48:31;;;;;;;22.77;19.80;;;;;;;;;;4959797;28;20834;-77
2021/09/12 00:50:56;;;;;;;26.20;20.77;;;;;;;;;;4963850;28;20437;-77
2021/09/12 00:53:22;;;;;;;23.30;20.60;;;;;;;;;;4964125;28;20218;-77
2021/09/12 00:55:47;;;;;;;26.03;21.20;;;;;;;;;;4962355;28;20597;-77
2021/09/12 00:58:16;;;;;;;25.93;21.67;;;;;;;;;;4961094;28;20198;-77
2021/09/12 01:00:43;;;;;;;23.87;20.00;;;;;;;;;;4961209;28;20186;-78
2021/09/12 01:03:08;;;;;;;22.93;19.73;;;;;;;;;;4960805;28;20481;-78
2021/09/12 01:05:33;;;;;;;21.57;19.27;;;;;;;;;;4961278;28;20927;-77
2021/09/12 01:07:59;;;;;;;25.53;20.80;;;;;;;;;;4961331;28;20267;-78
2021/09/12 01:10:24;;;;;;;21.70;19.40;;;;;;;;;;4964266;28;20225;-77
2021/09/12 01:12:49;;;;;;;28.10;22.57;;;;;;;;;;4962154;28;20636;-77
2021/09/12 01:15:14;;;;;;;24.03;21.47;;;;;;;;;;4961641;28;20231;-78
2021/09/12 01:17:40;;;;;;;24.87;20.90;;;;;;;;;;4962739;28;20206;-77
2021/09/12 01:20:05;;;;;;;26.27;22.57;;;;;;;;;;4960750;28;20186;-77
2021/09/12 01:22:31;;;;;;;24.07;20.80;;;;;;;;;;4962320;28;20203;-77
2021/09/12 01:24:56;;;;;;;26.80;21.87;;;;;;;;;;4961635;28;20187;-77
2021/09/12 01:27:21;;;;;;;24.90;21.20;;;;;;;;;;4961619;28;20222;-77
2021/09/12 01:29:47;;;;;;;26.30;21.63;;;;;;;;;;4962204;28;20543;-76
2021/09/12 01:32:12;;;;;;;25.57;19.97;;;;;;;;;;4962374;28;20564;-77
2021/09/12 01:34:37;;;;;;;24.50;19.37;;;;;;;;;;4961492;28;20198;-78
2021/09/12 01:37:03;;;;;;;24.93;20.73;;;;;;;;;;4962962;28;20652;-77
2021/09/12 01:39:28;;;;;;;20.13;17.97;;;;;;;;;;4961951;28;20603;-77
2021/09/12 01:41:53;;;;;;;21.37;18.97;;;;;;;;;;4961595;28;20210;-77
2021/09/12 01:44:24;;;;;;;21.47;19.17;;;;;;;;;;4956731;28;20199;-78
2021/09/12 01:46:49;;;;;;;23.83;20.70;;;;;;;;;;4959661;28;20207;-77
2021/09/12 01:49:15;;;;;;;20.77;17.87;;;;;;;;;;4957972;28;20426;-77
2021/09/12 01:51:40;;;;;;;20.33;18.13;;;;;;;;;;4958761;28;20846;-77
2021/09/12 01:54:06;;;;;;;20.10;18.10;;;;;;;;;;4957399;28;20178;-78
2021/09/12 01:56:31;;;;;;;19.50;17.50;;;;;;;;;;4960449;28;20540;-77
2021/09/12 01:58:56;;;;;;;21.20;18.10;;;;;;;;;;4959856;28;20272;-77
2021/09/12 02:01:22;;;;;;;19.63;16.60;;;;;;;;;;4959347;28;20213;-78
2021/09/12 02:03:47;;;;;;;17.20;15.00;;;;;;;;;;4958035;28;20179;-77
2021/09/12 02:06:13;;;;;;;15.77;14.10;;;;;;;;;;4959716;28;20915;-77
2021/09/12 02:08:38;;;;;;;17.17;15.23;;;;;;;;;;4958456;28;20226;-77
2021/09/12 02:11:03;;;;;;;18.23;14.80;;;;;;;;;;4959881;28;20183;-77
2021/09/12 02:13:29;;;;;;;15.37;13.70;;;;;;;;;;4960004;28;20186;-78
2021/09/12 02:15:54;;;;;;;17.27;15.47;;;;;;;;;;4959993;28;20258;-77
2021/09/12 02:18:20;;;;;;;16.93;14.90;;;;;;;;;;4959967;28;20201;-77
2021/09/12 02:20:45;;;;;;;18.50;15.47;;;;;;;;;;4959121;28;20214;-77
2021/09/12 02:23:10;;;;;;;22.30;16.80;;;;;;;;;;4958596;28;20195;-77
2021/09/12 02:25:36;;;;;;;26.87;18.03;;;;;;;;;;4957733;28;20627;-77
2021/09/12 02:28:01;;;;;;;21.30;17.73;;;;;;;;;;4958750;28;20273;-78
2021/09/12 02:30:27;;;;;;;23.20;19.47;;;;;;;;;;4959814;28;20992;-77
2021/09/12 02:32:52;;;;;;;23.77;19.57;;;;;;;;;;4959025;28;20174;-77
2021/09/12 02:35:17;;;;;;;29.47;20.30;;;;;;;;;;4958347;28;20536;-78
2021/09/12 02:37:42;;;;;;;22.70;19.03;;;;;;;;;;4958040;28;20213;-77
2021/09/12 02:40:08;;;;;;;27.03;21.03;;;;;;;;;;4957897;28;20210;-78
2021/09/12 02:42:33;;;;;;;33.63;25.33;;;;;;;;;;4959756;28;20672;-76
2021/09/12 02:44:58;;;;;;;26.80;23.30;;;;;;;;;;4960343;28;20218;-77
2021/09/12 02:47:24;;;;;;;30.30;24.30;;;;;;;;;;4957658;28;20273;-78
2021/09/12 02:49:49;;;;;;;30.43;22.97;;;;;;;;;;4957006;28;20234;-79
2021/09/12 02:52:14;;;;;;;36.83;24.77;;;;;;;;;;4957410;28;20694;-79
2021/09/12 02:54:39;;;;;;;28.57;22.63;;;;;;;;;;4960016;28;20183;-78
2021/09/12 02:57:05;;;;;;;28.70;22.90;;;;;;;;;;4960307;28;20195;-78
2021/09/12 02:59:30;;;;;;;25.70;21.53;;;;;;;;;;4957851;28;20588;-78
2021/09/12 03:01:56;;;;;;;29.30;22.40;;;;;;;;;;4957341;28;20183;-78
2021/09/12 03:04:21;;;;;;;30.73;21.40;;;;;;;;;;4957770;28;20597;-78
2021/09/12 03:06:46;;;;;;;29.87;22.90;;;;;;;;;;4958121;28;20678;-78
2021/09/12 03:09:13;;;;;;;29.70;21.00;;;;;;;;;;4959604;28;20233;-79
2021/09/12 03:11:39;;;;;;;31.27;22.43;;;;;;;;;;4959896;28;20176;-75
2021/09/12 03:14:04;;;;;;;30.40;20.70;;;;;;;;;;4957123;28;20442;-78
2021/09/12 03:16:29;;;;;;;28.97;19.73;;;;;;;;;;4957571;28;20270;-76
2021/09/12 03:18:54;;;;;;;27.23;19.70;;;;;;;;;;4957498;28;20233;-77
2021/09/12 03:21:20;;;;;;;31.50;23.40;;;;;;;;;;4958921;28;20245;-77
2021/09/12 03:23:45;;;;;;;32.00;21.70;;;;;;;;;;4958106;28;20198;-77
2021/09/12 03:26:11;;;;;;;28.30;20.50;;;;;;;;;;4958242;28;20211;-76
2021/09/12 03:28:36;;;;;;;32.00;20.50;;;;;;;;;;4959570;28;20226;-76
2021/09/12 03:31:01;;;;;;;30.60;19.53;;;;;;;;;;4959319;28;20237;-78
2021/09/12 03:33:26;;;;;;;28.13;19.77;;;;;;;;;;4957601;28;21070;-78
2021/09/12 03:35:52;;;;;;;27.20;18.70;;;;;;;;;;4958473;28;20548;-78
2021/09/12 03:38:17;;;;;;;27.13;21.00;;;;;;;;;;4958644;28;20207;-78
2021/09/12 03:40:42;;;;;;;26.60;20.17;;;;;;;;;;4958940;28;20246;-78
2021/09/12 03:43:08;;;;;;;23.97;18.53;;;;;;;;;;4960768;28;20190;-78
2021/09/12 03:45:33;;;;;;;22.17;17.03;;;;;;;;;;4952877;28;20186;-78
2021/09/12 03:47:58;;;;;;;23.80;17.40;;;;;;;;;;4957971;28;20218;-78
2021/09/12 03:50:24;;;;;;;23.83;16.10;;;;;;;;;;4964860;28;20202;-78
2021/09/12 03:52:49;;;;;;;23.67;16.47;;;;;;;;;;4961908;28;20201;-78
2021/09/12 03:55:14;;;;;;;23.33;16.73;;;;;;;;;;4964572;28;20666;-78
2021/09/12 03:57:40;;;;;;;18.27;14.73;;;;;;;;;;4960680;28;20209;-78
2021/09/12 04:00:07;;;;;;;23.33;16.13;;;;;;;;;;4962050;28;20222;-79
2021/09/12 04:02:33;;;;;;;22.90;15.67;;;;;;;;;;4961432;28;20229;-78
2021/09/12 04:04:58;;;;;;;25.90;15.40;;;;;;;;;;4962550;28;20473;-78
2021/09/12 04:07:23;;;;;;;22.87;14.57;;;;;;;;;;4958927;28;20222;-78
2021/09/12 04:09:48;;;;;;;21.80;14.70;;;;;;;;;;4963211;28;20659;-78
2021/09/12 04:12:14;;;;;;;19.87;14.33;;;;;;;;;;4963978;28;20663;-78
2021/09/12 04:14:39;;;;;;;21.77;13.37;;;;;;;;;;4962762;28;20214;-78
2021/09/12 04:17:04;;;;;;;21.33;13.60;;;;;;;;;;4960286;28;20265;-78
2021/09/12 04:19:29;;;;;;;20.40;13.20;;;;;;;;;;4962371;28;20221;-78
2021/09/12 04:21:55;;;;;;;18.60;12.33;;;;;;;;;;4963341;28;20198;-77
2021/09/12 04:24:21;;;;;;;22.67;15.20;;;;;;;;;;4962702;28;20304;-77
2021/09/12 04:26:49;;;;;;;18.20;12.80;;;;;;;;;;4960477;28;20202;-76
2021/09/12 04:29:14;;;;;;;20.90;14.40;;;;;;;;;;4961536;28;20533;-77
2021/09/12 04:31:39;;;;;;;17.73;12.93;;;;;;;;;;4958028;28;20524;-77
2021/09/12 04:34:04;;;;;;;17.67;13.00;;;;;;;;;;4963068;28;20194;-77
2021/09/12 04:36:30;;;;;;;19.53;13.03;;;;;;;;;;4963665;28;20226;-77
2021/09/12 04:38:55;;;;;;;23.57;14.13;;;;;;;;;;4962653;28;20227;-77
2021/09/12 04:41:20;;;;;;;16.93;14.10;;;;;;;;;;4960626;28;20175;-77
2021/09/12 04:43:46;;;;;;;27.10;15.30;;;;;;;;;;4959335;28;20183;-77
2021/09/12 04:46:11;;;;;;;17.33;11.87;;;;;;;;;;4963034;28;20219;-76
2021/09/12 04:48:37;;;;;;;18.80;12.67;;;;;;;;;;4961339;28;20264;-77
2021/09/12 04:51:04;;;;;;;21.83;13.47;;;;;;;;;;4963264;28;20174;-77
2021/09/12 04:53:30;;;;;;;19.50;12.10;;;;;;;;;;4962174;28;20198;-77
2021/09/12 04:55:55;;;;;;;18.50;12.70;;;;;;;;;;4962420;28;20851;-77
2021/09/12 04:58:20;;;;;;;22.47;13.13;;;;;;;;;;4961346;28;20289;-78
2021/09/12 05:00:45;;;;;;;14.20;10.57;;;;;;;;;;4963142;28;20694;-77
2021/09/12 05:03:11;;;;;;;18.80;11.93;;;;;;;;;;4960957;28;20242;-76
2021/09/12 05:05:36;;;;;;;18.33;10.50;;;;;;;;;;4962169;28;20258;-77
2021/09/12 05:08:01;;;;;;;17.97;12.37;;;;;;;;;;4961113;28;20254;-77
2021/09/12 05:10:27;;;;;;;19.97;13.07;;;;;;;;;;4968702;28;20185;-77
2021/09/12 05:12:52;;;;;;;14.07;11.10;;;;;;;;;;4962137;28;20194;-77
2021/09/12 05:15:18;;;;;;;17.43;12.10;;;;;;;;;;4960940;28;20440;-77
2021/09/12 05:17:43;;;;;;;16.03;10.83;;;;;;;;;;4961838;28;20285;-77
2021/09/12 05:20:08;;;;;;;17.73;11.53;;;;;;;;;;4960217;28;20189;-77
2021/09/12 05:22:34;;;;;;;15.07;10.67;;;;;;;;;;4960601;28;20250;-77
2021/09/12 05:25:00;;;;;;;17.70;11.57;;;;;;;;;;4961121;28;20656;-77
2021/09/12 05:27:25;;;;;;;20.10;12.30;;;;;;;;;;4961150;28;20210;-77
2021/09/12 05:29:50;;;;;;;22.50;13.00;;;;;;;;;;4957703;28;20826;-77
2021/09/12 05:32:15;;;;;;;22.57;12.10;;;;;;;;;;4961224;28;20187;-77
2021/09/12 05:34:41;;;;;;;29.97;15.37;;;;;;;;;;4958265;28;20206;-77
2021/09/12 05:37:06;;;;;;;18.10;13.60;;;;;;;;;;4960447;28;20223;-77
2021/09/12 05:39:31;;;;;;;21.10;12.97;;;;;;;;;;4961704;28;20221;-77
2021/09/12 05:41:56;;;;;;;25.00;14.17;;;;;;;;;;4961246;28;20195;-77
2021/09/12 05:44:22;;;;;;;18.70;13.60;;;;;;;;;;4960842;28;20332;-77
2021/09/12 05:46:51;;;;;;;20.13;11.77;;;;;;;;;;4959595;28;20245;-77
2021/09/12 05:49:16;;;;;;;15.33;11.83;;;;;;;;;;4961566;28;20665;-77
2021/09/12 05:51:41;;;;;;;18.30;11.90;;;;;;;;;;4965503;28;20437;-77
2021/09/12 05:54:06;;;;;;;21.57;13.50;;;;;;;;;;4959008;28;20274;-77
2021/09/12 05:56:32;;;;;;;20.40;13.03;;;;;;;;;;4959336;28;20194;-77
2021/09/12 05:58:57;;;;;;;14.90;11.00;;;;;;;;;;4960427;28;20194;-77
2021/09/12 06:01:22;;;;;;;22.30;13.00;;;;;;;;;;4959681;28;20171;-77
2021/09/12 06:03:47;;;;;;;23.83;12.43;;;;;;;;;;4959148;28;20273;-77
2021/09/12 06:06:13;;;;;;;20.50;11.90;;;;;;;;;;4957819;28;20171;-77
2021/09/12 06:08:38;;;;;;;19.73;11.40;;;;;;;;;;4960617;28;20211;-80
2021/09/12 06:11:03;;;;;;;18.40;11.10;;;;;;;;;;4960194;28;20209;-78
2021/09/12 06:13:29;;;;;;;18.17;10.90;;;;;;;;;;4962158;28;20206;-77
2021/09/12 06:15:54;;;;;;;14.60;10.53;;;;;;;;;;4958332;28;20190;-78
2021/09/12 06:18:19;;;;;;;17.27;10.40;;;;;;;;;;4960049;28;20209;-77
2021/09/12 06:20:44;;;;;;;19.00;11.00;;;;;;;;;;4958842;28;20205;-78
2021/09/12 06:23:10;;;;;;;17.43;10.23;;;;;;;;;;4961131;28;20194;-78
2021/09/12 06:25:35;;;;;;;20.03;11.40;;;;;;;;;;4962134;28;20266;-78
2021/09/12 06:28:00;;;;;;;20.13;9.83;;;;;;;;;;4963077;28;20240;-78
2021/09/12 06:30:26;;;;;;;16.87;10.93;;;;;;;;;;4962768;28;20183;-78
2021/09/12 06:32:51;;;;;;;14.67;8.77;;;;;;;;;;4961299;28;20271;-77
2021/09/12 06:35:16;;;;;;;16.53;9.00;;;;;;;;;;4962868;28;20181;-78
2021/09/12 06:37:42;;;;;;;24.03;10.50;;;;;;;;;;4961366;28;20234;-78
2021/09/12 06:40:07;;;;;;;18.73;9.33;;;;;;;;;;4961384;28;20190;-78
2021/09/12 06:42:33;;;;;;;16.33;9.67;;;;;;;;;;4959731;28;20620;-78
2021/09/12 06:44:58;;;;;;;17.33;9.70;;;;;;;;;;4959871;28;21128;-79
2021/09/12 06:47:23;;;;;;;19.27;9.50;;;;;;;;;;4958869;28;20217;-78
2021/09/12 06:49:49;;;;;;;18.10;9.73;;;;;;;;;;4962447;28;20171;-78
2021/09/12 06:52:14;;;;;;;23.37;11.03;;;;;;;;;;4961358;28;20236;-78
2021/09/12 06:54:39;;;;;;;15.17;9.80;;;;;;;;;;4961700;28;20180;-78
2021/09/12 06:57:04;;;;;;;16.10;9.70;;;;;;;;;;4961707;28;20193;-78
2021/09/12 06:59:30;;;;;;;16.27;9.97;;;;;;;;;;4961246;28;20186;-78
2021/09/12 07:01:55;;;;;;;15.27;9.03;;;;;;;;;;4956650;28;20207;-78
2021/09/12 07:04:20;;;;;;;20.87;10.23;;;;;;;;;;4961342;28;20246;-78
2021/09/12 07:06:45;;;;;;;16.77;9.93;;;;;;;;;;4959575;28;20202;-78
2021/09/12 07:09:11;;;;;;;17.33;11.73;;;;;;;;;;4960712;28;20222;-77
2021/09/12 07:11:37;;;;;;;17.03;9.70;;;;;;;;;;4962653;28;20206;-78
2021/09/12 07:14:03;;;;;;;17.07;9.33;;;;;;;;;;4954439;28;20198;-77
2021/09/12 07:16:28;;;;;;;17.40;10.07;;;;;;;;;;4957261;28;20437;-76
2021/09/12 07:18:54;;;;;;;25.17;11.10;;;;;;;;;;4958472;28;20738;-77
2021/09/12 07:21:19;;;;;;;19.40;11.10;;;;;;;;;;4959145;28;20815;-77
2021/09/12 07:23:44;;;;;;;20.40;10.20;;;;;;;;;;4959825;28;20190;-75
2021/09/12 07:26:09;;;;;;;15.90;9.80;;;;;;;;;;4958590;28;20275;-78
2021/09/12 07:28:35;;;;;;;20.30;11.00;;;;;;;;;;4961090;28;20207;-76
2021/09/12 07:31:03;;;;;;;17.13;10.50;;;;;;;;;;4964586;28;20546;-78
2021/09/12 07:33:28;;;;;;;17.53;11.17;;;;;;;;;;4964243;28;20178;-78
2021/09/12 07:35:53;;;;;;;21.10;11.00;;;;;;;;;;4964090;28;20534;-78
2021/09/12 07:38:19;;;;;;;17.77;9.60;;;;;;;;;;4958506;28;20245;-79
2021/09/12 07:40:44;;;;;;;16.00;10.53;;;;;;;;;;4963246;28;20594;-77
2021/09/12 07:43:09;;;;;;;20.03;10.13;;;;;;;;;;4965507;28;20186;-77
2021/09/12 07:45:34;;;;;;;13.47;9.07;;;;;;;;;;4962790;28;20637;-77
2021/09/12 07:47:59;;;;;;;19.07;11.30;;;;;;;;;;4964224;28;20677;-77
2021/09/12 07:50:25;;;;;;;17.80;11.63;;;;;;;;;;4962592;28;20183;-77
2021/09/12 07:52:50;;;;;;;27.30;10.70;;;;;;;;;;4963922;28;20182;-77
2021/09/12 07:55:15;;;;;;;21.73;12.83;;;;;;;;;;4964444;28;20186;-77
2021/09/12 07:57:41;;;;;;;23.13;12.60;;;;;;;;;;4961247;28;20670;-77
2021/09/12 08:00:07;;;;;;;18.60;12.13;;;;;;;;;;4961932;28;20186;-78
2021/09/12 08:02:32;;;;;;;36.43;12.93;;;;;;;;;;4960608;28;20712;-77
2021/09/12 08:04:58;;;;;;;19.07;12.10;;;;;;;;;;4962394;28;20433;-77
2021/09/12 08:07:23;;;;;;;25.30;13.50;;;;;;;;;;4961351;28;20211;-77
2021/09/12 08:09:48;;;;;;;26.30;17.50;;;;;;;;;;4962333;28;20204;-76
2021/09/12 08:12:14;;;;;;;21.37;16.23;;;;;;;;;;4960914;28;20280;-78
2021/09/12 08:14:39;;;;;;;30.00;16.67;;;;;;;;;;4961093;28;20183;-75
2021/09/12 08:17:04;;;;;;;29.53;16.77;;;;;;;;;;4963061;28;20790;-78
2021/09/12 08:19:29;;;;;;;26.03;17.83;;;;;;;;;;4960789;28;20725;-78
2021/09/12 08:21:55;;;;;;;21.77;16.20;;;;;;;;;;4960089;28;20186;-77
2021/09/12 08:24:20;;;;;;;23.00;15.73;;;;;;;;;;4962012;28;20198;-79
2021/09/12 08:26:45;;;;;;;25.30;15.60;;;;;;;;;;4960893;28;20560;-77
2021/09/12 08:29:11;;;;;;;26.03;16.10;;;;;;;;;;4962341;28;20197;-78
2021/09/12 08:31:36;;;;;;;30.80;22.50;;;;;;;;;;4960645;28;20222;-78
2021/09/12 08:34:01;;;;;;;30.80;22.43;;;;;;;;;;4961276;28;20189;-77
2021/09/12 08:36:26;;;;;;;28.67;22.50;;;;;;;;;;4959533;28;20194;-78
2021/09/12 08:38:52;;;;;;;27.40;22.10;;;;;;;;;;4959808;28;20278;-77
2021/09/12 08:41:18;;;;;;;28.27;21.77;;;;;;;;;;4959422;28;20189;-78
2021/09/12 08:43:45;;;;;;;22.80;18.43;;;;;;;;;;4960730;28;20191;-79
2021/09/12 08:46:11;;;;;;;29.67;17.63;;;;;;;;;;4959915;28;20465;-77
2021/09/12 08:48:36;;;;;;;20.80;17.33;;;;;;;;;;4960484;28;20608;-76
2021/09/12 08:51:02;;;;;;;20.33;16.43;;;;;;;;;;4959938;28;20187;-76
2021/09/12 08:53:27;;;;;;;22.40;15.40;;;;;;;;;;4959598;28;20186;-77
2021/09/12 08:55:52;;;;;;;20.07;12.80;;;;;;;;;;4958314;28;20190;-78
2021/09/12 08:58:18;;;;;;;17.80;14.00;;;;;;;;;;4960974;28;20210;-78
2021/09/12 09:00:44;;;;;;;23.57;16.37;;;;;;;;;;4960350;28;20278;-76
2021/09/12 09:03:09;;;;;;;23.60;17.13;;;;;;;;;;4962854;28;20190;-77
2021/09/12 09:05:37;;;;;;;25.47;16.03;;;;;;;;;;4960676;28;20441;-76
2021/09/12 09:08:03;;;;;;;17.67;13.30;;;;;;;;;;4961438;28;20214;-77
2021/09/12 09:10:35;;;;;;;20.73;14.03;;;;;;;;;;4959071;28;20437;-79
2021/09/12 09:13:00;;;;;;;15.67;12.67;;;;;;;;;;4961810;28;20433;-77
2021/09/12 09:15:26;;;;;;;17.40;13.57;;;;;;;;;;4959398;28;20881;-76
2021/09/12 09:17:52;;;;;;;19.83;15.70;;;;;;;;;;4960339;28;20218;-76
2021/09/12 09:20:29;;;;;;;19.53;14.20;;;;;;;;;;4959312;28;20183;-77
2021/09/12 09:22:57;;;;;;;20.80;15.10;;;;;;;;;;4960868;28;20450;-77
2021/09/12 09:25:23;;;;;;;19.50;13.63;;;;;;;;;;4958710;28;20497;-77
2021/09/12 09:27:51;;;;;;;15.67;12.20;;;;;;;;;;4959947;28;20501;-79
2021/09/12 09:30:17;;;;;;;16.20;11.97;;;;;;;;;;4961251;28;20437;-75
2021/09/12 09:32:42;;;;;;;13.20;8.60;;;;;;;;;;4961359;28;20536;-77
2021/09/12 09:35:07;;;;;;;13.83;11.83;;;;;;;;;;4961920;28;20237;-76
2021/09/12 09:37:32;;;;;;;12.43;8.90;;;;;;;;;;4959220;28;20267;-76
2021/09/12 09:39:59;;;;;;;8.63;6.87;;;;;;;;;;4959244;28;20218;-78
2021/09/12 09:42:32;;;;;;;8.50;7.03;;;;;;;;;;4961261;28;20202;-77
2021/09/12 09:45:01;;;;;;;9.23;6.87;;;;;;;;;;4960106;28;20493;-78
2021/09/12 09:47:29;;;;;;;9.13;6.60;;;;;;;;;;4960027;28;21052;-75
2021/09/12 09:50:03;;;;;;;12.83;7.17;;;;;;;;;;4958957;28;20433;-75
2021/09/12 09:52:30;;;;;;;9.73;6.67;;;;;;;;;;4961732;28;20896;-75
2021/09/12 09:54:55;;;;;;;9.70;6.20;;;;;;;;;;4958808;28;20849;-76
2021/09/12 09:57:20;;;;;;;7.33;4.87;;;;;;;;;;4960309;28;20512;-77
2021/09/12 09:59:46;;;;;;;12.30;6.00;;;;;;;;;;4961411;28;20238;-77
2021/09/12 10:02:12;;;;;;;12.60;6.77;;;;;;;;;;4959585;28;20201;-75
2021/09/12 10:04:38;;;;;;;8.90;5.23;;;;;;;;;;4957985;28;20433;-76
2021/09/12 10:07:03;;;;;;;11.43;6.80;;;;;;;;;;4955502;28;20293;-74
2021/09/12 10:09:29;;;;;;;8.93;5.13;;;;;;;;;;4958420;28;20516;-76
2021/09/12 10:11:55;;;;;;;8.30;6.00;;;;;;;;;;4958181;28;20183;-75
2021/09/12 10:14:28;;;;;;;8.67;5.23;;;;;;;;;;4959463;28;20187;-74
2021/09/12 10:16:54;;;;;;;8.13;5.30;;;;;;;;;;4956281;28;20487;-76
2021/09/12 10:19:32;;;;;;;9.33;5.00;;;;;;;;;;4959752;28;20926;-76
2021/09/12 10:21:58;;;;;;;6.97;5.37;;;;;;;;;;4955452;28;20206;-76
2021/09/12 10:24:23;;;;;;;11.13;5.20;;;;;;;;;;4956278;28;20453;-73
2021/09/12 10:26:48;;;;;;;9.77;5.23;;;;;;;;;;4962075;28;20430;-74
2021/09/12 10:29:34;;;;;;;9.07;5.77;;;;;;;;;;4956942;28;20620;-74
2021/09/12 10:32:19;;;;;;;10.97;7.50;;;;;;;;;;4959775;28;20441;-75
2021/09/12 10:35:03;;;;;;;9.83;6.80;;;;;;;;;;4959822;28;20641;-74
2021/09/12 10:37:33;;;;;;;14.27;5.50;;;;;;;;;;4957400;28;20465;-76
2021/09/12 10:39:58;;;;;;;10.43;5.10;;;;;;;;;;4956884;28;20465;-73
2021/09/12 10:42:24;;;;;;;10.03;5.80;;;;;;;;;;4954428;28;20450;-74
2021/09/12 10:45:08;;;;;;;10.40;6.80;;;;;;;;;;4954666;28;20191;-76
2021/09/12 10:47:33;;;;;;;8.93;6.10;;;;;;;;;;4954009;28;20222;-78
2021/09/12 10:49:58;;;;;;;10.70;6.00;;;;;;;;;;4964990;28;20478;-78
2021/09/12 10:52:42;;;;;;;8.97;6.47;;;;;;;;;;4957374;28;20178;-78
2021/09/12 10:55:08;;;;;;;8.97;5.50;;;;;;;;;;4959513;28;20559;-78
2021/09/12 10:57:34;;;;;;;8.67;5.77;;;;;;;;;;4965646;28;20457;-77
2021/09/12 11:00:00;;;;;;;5.63;3.80;;;;;;;;;;4958628;28;20635;-74
2021/09/12 11:02:25;;;;;;;5.83;2.73;;;;;;;;;;4956126;28;20462;-76
2021/09/12 11:04:50;;;;;;;3.47;2.40;;;;;;;;;;4957691;28;20221;-75
2021/09/12 11:07:16;;;;;;;3.37;2.00;;;;;;;;;;4957292;28;20211;-74
2021/09/12 11:09:41;;;;;;;5.50;2.07;;;;;;;;;;4956453;28;20210;-75
2021/09/12 11:12:06;;;;;;;3.37;2.00;;;;;;;;;;4956553;28;20314;-74
2021/09/12 11:14:33;;;;;;;5.80;1.90;;;;;;;;;;4960684;28;20206;-75
2021/09/12 11:17:08;;;;;;;3.27;1.53;;;;;;;;;;4961576;28;20668;-76
2021/09/12 11:19:36;;;;;;;3.33;1.43;;;;;;;;;;4959259;28;20441;-76
2021/09/12 11:22:01;;;;;;;3.07;1.43;;;;;;;;;;4960725;28;20451;-76
2021/09/12 11:24:28;;;;;;;1.80;0.97;;;;;;;;;;4956720;28;20456;-72
2021/09/12 11:26:54;;;;;;;6.53;4.83;;;;;;;;;;4966267;28;20187;-76
2021/09/12 11:29:23;;;;;;;6.57;4.20;;;;;;;;;;4960592;28;20443;-74
2021/09/12 11:31:50;;;;;;;5.50;3.40;;;;;;;;;;4959548;28;20438;-74
2021/09/12 11:34:16;;;;;;;5.70;3.70;;;;;;;;;;4960982;28;20983;-75
2021/09/12 11:36:54;;;;;;;6.03;5.10;;;;;;;;;;4954965;28;20450;-75
2021/09/12 11:39:23;;;;;;;3.40;1.63;;;;;;;;;;4954289;28;20523;-75
2021/09/12 11:41:49;;;;;;;2.07;1.23;;;;;;;;;;4960158;28;20458;-75
2021/09/12 11:44:14;;;;;;;4.37;1.17;;;;;;;;;;4962097;28;20426;-75
2021/09/12 11:46:47;;;;;;;4.80;1.17;;;;;;;;;;4960290;28;20211;-75
2021/09/12 11:49:12;;;;;;;1.30;0.80;;;;;;;;;;4960788;28;20195;-76
2021/09/12 11:51:39;;;;;;;3.70;1.43;;;;;;;;;;4960485;28;20476;-75
2021/09/12 11:54:04;;;;;;;2.73;1.90;;;;;;;;;;4961884;28;20203;-75
2021/09/12 11:56:29;;;;;;;2.37;1.63;;;;;;;;;;4961141;28;20456;-75
2021/09/12 11:58:54;;;;;;;3.77;1.37;;;;;;;;;;4962871;28;20212;-75
2021/09/12 12:01:20;;;;;;;3.50;1.80;;;;;;;;;;4959992;28;20182;-74
2021/09/12 12:03:45;;;;;;;4.70;1.90;;;;;;;;;;4962067;28;20186;-75
2021/09/12 12:06:10;;;;;;;3.50;1.17;;;;;;;;;;4961467;28;20186;-75
2021/09/12 12:08:56;;;;;;;4.17;1.73;;;;;;;;;;4960813;28;20757;-75
2021/09/12 12:11:21;;;;;;;5.40;3.43;;;;;;;;;;4962696;28;20202;-75
2021/09/12 12:13:46;;;;;;;6.43;4.53;;;;;;;;;;4961389;28;20430;-76
2021/09/12 12:16:11;;;;;;;9.90;6.30;;;;;;;;;;4966448;28;20190;-76
2021/09/12 12:18:37;;;;;;;8.90;2.90;;;;;;;;;;4962744;28;20206;-74
2021/09/12 12:21:12;;;;;;;4.73;2.80;;;;;;;;;;4964888;28;20190;-74
2021/09/12 12:23:41;;;;;;;4.10;1.33;;;;;;;;;;4962844;28;20194;-75
2021/09/12 12:26:15;;;;;;;5.13;3.50;;;;;;;;;;4963597;28;20450;-75
2021/09/12 12:28:41;;;;;;;4.00;2.00;;;;;;;;;;4965047;28;20472;-75
2021/09/12 12:31:13;;;;;;;2.33;1.70;;;;;;;;;;4964364;28;20456;-76
2021/09/12 12:33:39;;;;;;;5.30;3.30;;;;;;;;;;4964063;28;20613;-76
2021/09/12 12:36:05;;;;;;;4.80;3.10;;;;;;;;;;4963492;28;20497;-76
2021/09/12 12:38:30;;;;;;;11.40;5.20;;;;;;;;;;4964647;28;20458;-76
2021/09/12 12:41:25;;;;;;;5.87;3.63;;;;;;;;;;4964156;28;20776;-76
2021/09/12 12:43:50;;;;;;;9.37;5.20;;;;;;;;;;4962067;28;20191;-76
2021/09/12 12:46:16;;;;;;;5.00;1.97;;;;;;;;;;4963791;28;20496;-76
2021/09/12 12:48:44;;;;;;;2.23;1.10;;;;;;;;;;4963942;28;20225;-76
2021/09/12 12:51:17;;;;;;;1.30;0.67;;;;;;;;;;4965403;28;20179;-74
2021/09/12 12:53:44;;;;;;;3.70;1.50;;;;;;;;;;4962607;28;20398;-74
2021/09/12 12:56:11;;;;;;;4.87;1.10;;;;;;;;;;4964105;28;20462;-74
2021/09/12 12:58:36;;;;;;;1.10;0.87;;;;;;;;;;4963401;28;20446;-75
2021/09/12 13:01:03;;;;;;;2.40;0.93;;;;;;;;;;4963813;28;20448;-74
2021/09/12 13:03:28;;;;;;;1.37;0.87;;;;;;;;;;4961888;28;20214;-75
2021/09/12 13:05:55;;;;;;;2.70;1.00;;;;;;;;;;4962911;28;20470;-75
2021/09/12 13:08:21;;;;;;;2.10;0.70;;;;;;;;;;4963018;28;20214;-75
2021/09/12 13:10:49;;;;;;;4.43;1.27;;;;;;;;;;4963235;28;20426;-75
2021/09/12 13:13:16;;;;;;;4.10;0.90;;;;;;;;;;4960070;28;20430;-75
2021/09/12 13:15:42;;;;;;;5.60;1.27;;;;;;;;;;4963081;28;20932;-75
2021/09/12 13:18:07;;;;;;;1.63;1.00;;;;;;;;;;4969773;28;20461;-75
2021/09/12 13:20:33;;;;;;;1.27;0.87;;;;;;;;;;4965372;28;20183;-75
2021/09/12 13:22:59;;;;;;;1.03;0.70;;;;;;;;;;4962856;28;20194;-74
2021/09/12 13:25:24;;;;;;;1.97;1.07;;;;;;;;;;4961712;28;20262;-75
2021/09/12 13:27:52;;;;;;;2.60;1.43;;;;;;;;;;4964579;28;20758;-74
2021/09/12 13:30:18;;;;;;;4.80;1.07;;;;;;;;;;4961704;28;20202;-75
2021/09/12 13:32:43;;;;;;;2.00;1.17;;;;;;;;;;4961759;28;20844;-75
2021/09/12 13:35:09;;;;;;;3.97;1.17;;;;;;;;;;4960390;28;20175;-74
2021/09/12 13:37:34;;;;;;;1.30;1.00;;;;;;;;;;4957998;28;20198;-75
2021/09/12 13:40:00;;;;;;;2.70;1.03;;;;;;;;;;4958874;28;20210;-74
2021/09/12 13:42:25;;;;;;;5.13;1.40;;;;;;;;;;4955949;28;20670;-74
2021/09/12 13:44:50;;;;;;;3.77;1.40;;;;;;;;;;4962087;28;20265;-74
2021/09/12 13:47:15;;;;;;;2.80;0.93;;;;;;;;;;4959860;28;20210;-74
2021/09/12 13:49:41;;;;;;;1.50;0.80;;;;;;;;;;4962342;28;20257;-75
2021/09/12 13:52:06;;;;;;;3.07;0.93;;;;;;;;;;4957560;28;20280;-75
2021/09/12 13:54:32;;;;;;;3.17;1.10;;;;;;;;;;4961973;28;20187;-75
2021/09/12 13:56:57;;;;;;;2.70;0.90;;;;;;;;;;4959452;28;20655;-75
2021/09/12 13:59:22;;;;;;;1.60;0.90;;;;;;;;;;4963092;28;20179;-75
2021/09/12 14:01:47;;;;;;;4.13;0.80;;;;;;;;;;4964792;28;20190;-75
2021/09/12 14:04:13;;;;;;;1.03;0.70;;;;;;;;;;4957249;28;20178;-75
2021/09/12 14:06:38;;;;;;;2.27;1.20;;;;;;;;;;4958655;28;20187;-75
2021/09/12 14:09:04;;;;;;;1.17;0.93;;;;;;;;;;4959426;28;20648;-75
2021/09/12 14:11:31;;;;;;;2.90;1.17;;;;;;;;;;4960610;28;20221;-75
2021/09/12 14:13:57;;;;;;;2.37;1.03;;;;;;;;;;4957827;28;20465;-74
2021/09/12 14:16:22;;;;;;;5.17;1.57;;;;;;;;;;4959323;28;20969;-75
2021/09/12 14:18:47;;;;;;;5.20;1.30;;;;;;;;;;4960319;28;20218;-74
2021/09/12 14:21:14;;;;;;;4.17;2.03;;;;;;;;;;4961670;28;21086;-74